sensor_id;sensor_type;location;lat;lon;timestamp;pressure;altitude;pressure_sealevel;temperature;humidity
75425;BME280;64007;50.632;13.700;2023-07-09T00:01:13;98408.03;;;18.84;54.91
75425;BME280;64007;50.632;13.700;2023-07-09T00:03:39;98415.75;;;18.78;54.97
75425;BME280;64007;50.632;13.700;2023-07-09T00:06:07;98411.03;;;18.72;55.40
75425;BME280;64007;50.632;13.700;2023-07-09T00:08:33;98405.97;;;18.69;55.06
75425;BME280;64007;50.632;13.700;2023-07-09T00:10:59;98408.00;;;18.67;55.43
75425;BME280;64007;50.632;13.700;2023-07-09T00:13:26;98404.78;;;18.64;55.28
75425;BME280;64007;50.632;13.700;2023-07-09T00:15:57;98402.94;;;18.64;55.31
75425;BME280;64007;50.632;13.700;2023-07-09T00:18:23;98412.03;;;18.63;55.03
75425;BME280;64007;50.632;13.700;2023-07-09T00:20:49;98412.31;;;18.60;53.96
75425;BME280;64007;50.632;13.700;2023-07-09T00:23:15;98410.00;;;18.65;52.69
75425;BME280;64007;50.632;13.700;2023-07-09T00:25:45;98417.72;;;18.60;52.91
75425;BME280;64007;50.632;13.700;2023-07-09T00:28:15;98415.19;;;18.59;54.36
75425;BME280;64007;50.632;13.700;2023-07-09T00:30:41;98412.31;;;18.52;53.72
75425;BME280;64007;50.632;13.700;2023-07-09T00:33:12;98405.91;;;18.53;54.11
75425;BME280;64007;50.632;13.700;2023-07-09T00:35:42;98402.88;;;18.48;55.47
75425;BME280;64007;50.632;13.700;2023-07-09T00:38:17;98404.06;;;18.45;55.77
75425;BME280;64007;50.632;13.700;2023-07-09T00:43:27;98401.53;;;18.44;53.70
75425;BME280;64007;50.632;13.700;2023-07-09T00:49:07;98404.69;;;18.39;54.73
75425;BME280;64007;50.632;13.700;2023-07-09T00:51:40;98406.84;;;18.36;55.21
75425;BME280;64007;50.632;13.700;2023-07-09T00:54:35;98406.50;;;18.31;55.11
75425;BME280;64007;50.632;13.700;2023-07-09T00:57:11;98412.22;;;18.28;53.48
75425;BME280;64007;50.632;13.700;2023-07-09T00:59:39;98416.91;;;18.17;54.00
75425;BME280;64007;50.632;13.700;2023-07-09T01:02:07;98413.69;;;18.14;55.18
75425;BME280;64007;50.632;13.700;2023-07-09T01:04:33;98410.50;;;18.10;56.50
75425;BME280;64007;50.632;13.700;2023-07-09T01:07:00;98406.94;;;18.02;57.29
75425;BME280;64007;50.632;13.700;2023-07-09T01:09:26;98401.31;;;17.95;57.48
75425;BME280;64007;50.632;13.700;2023-07-09T01:11:52;98399.94;;;17.91;56.71
75425;BME280;64007;50.632;13.700;2023-07-09T01:14:22;98409.34;;;17.87;57.17
75425;BME280;64007;50.632;13.700;2023-07-09T01:17:04;98409.69;;;17.84;56.07
75425;BME280;64007;50.632;13.700;2023-07-09T01:19:37;98411.00;;;17.80;56.86
75425;BME280;64007;50.632;13.700;2023-07-09T01:22:16;98408.47;;;17.78;56.44
75425;BME280;64007;50.632;13.700;2023-07-09T01:25:06;98413.34;;;17.75;56.83
75425;BME280;64007;50.632;13.700;2023-07-09T01:27:37;98405.91;;;17.69;57.76
75425;BME280;64007;50.632;13.700;2023-07-09T01:30:11;98412.41;;;17.66;57.07
75425;BME280;64007;50.632;13.700;2023-07-09T01:32:40;98412.41;;;17.66;56.06
75425;BME280;64007;50.632;13.700;2023-07-09T01:35:12;98407.34;;;17.63;57.01
75425;BME280;64007;50.632;13.700;2023-07-09T01:37:41;98409.50;;;17.60;57.23
75425;BME280;64007;50.632;13.700;2023-07-09T01:40:08;98408.50;;;17.61;54.83
75425;BME280;64007;50.632;13.700;2023-07-09T01:42:35;98406.50;;;17.63;55.77
75425;BME280;64007;50.632;13.700;2023-07-09T01:45:05;98401.13;;;17.63;54.33
75425;BME280;64007;50.632;13.700;2023-07-09T01:47:31;98402.25;;;17.60;56.36
75425;BME280;64007;50.632;13.700;2023-07-09T01:49:57;98407.44;;;17.53;56.37
75425;BME280;64007;50.632;13.700;2023-07-09T01:52:25;98411.75;;;17.46;56.85
75425;BME280;64007;50.632;13.700;2023-07-09T01:54:53;98407.03;;;17.40;57.24
75425;BME280;64007;50.632;13.700;2023-07-09T01:57:21;98412.72;;;17.37;58.00
75425;BME280;64007;50.632;13.700;2023-07-09T01:59:54;98402.13;;;17.36;56.47
75425;BME280;64007;50.632;13.700;2023-07-09T02:02:21;98406.66;;;17.35;57.33
75425;BME280;64007;50.632;13.700;2023-07-09T02:04:55;98397.53;;;17.28;58.13
75425;BME280;64007;50.632;13.700;2023-07-09T02:07:22;98397.53;;;17.28;58.00
75425;BME280;64007;50.632;13.700;2023-07-09T02:09:49;98404.91;;;17.26;58.18
75425;BME280;64007;50.632;13.700;2023-07-09T02:12:15;98402.22;;;17.26;58.04
75425;BME280;64007;50.632;13.700;2023-07-09T02:14:42;98404.22;;;17.24;57.82
75425;BME280;64007;50.632;13.700;2023-07-09T02:17:09;98399.44;;;17.18;59.74
75425;BME280;64007;50.632;13.700;2023-07-09T02:19:36;98404.13;;;17.16;57.96
75425;BME280;64007;50.632;13.700;2023-07-09T02:22:03;98402.78;;;17.12;57.89
75425;BME280;64007;50.632;13.700;2023-07-09T02:24:28;98404.59;;;17.11;58.01
75425;BME280;64007;50.632;13.700;2023-07-09T02:26:55;98407.81;;;17.15;57.38
75425;BME280;64007;50.632;13.700;2023-07-09T02:29:21;98410.88;;;17.20;58.39
75425;BME280;64007;50.632;13.700;2023-07-09T02:31:49;98411.03;;;17.18;57.92
75425;BME280;64007;50.632;13.700;2023-07-09T02:34:14;98412.50;;;17.13;58.48
75425;BME280;64007;50.632;13.700;2023-07-09T02:36:40;98410.44;;;17.07;58.75
75425;BME280;64007;50.632;13.700;2023-07-09T02:39:10;98416.28;;;17.02;58.66
75425;BME280;64007;50.632;13.700;2023-07-09T02:41:36;98411.06;;;17.01;59.30
75425;BME280;64007;50.632;13.700;2023-07-09T02:44:03;98416.22;;;16.94;60.74
75425;BME280;64007;50.632;13.700;2023-07-09T02:46:29;98420.06;;;16.91;61.46
75425;BME280;64007;50.632;13.700;2023-07-09T02:48:55;98418.06;;;16.94;59.78
75425;BME280;64007;50.632;13.700;2023-07-09T02:51:21;98420.59;;;16.95;58.84
75425;BME280;64007;50.632;13.700;2023-07-09T02:53:47;98420.06;;;16.91;59.11
75425;BME280;64007;50.632;13.700;2023-07-09T02:56:13;98417.69;;;16.88;58.60
75425;BME280;64007;50.632;13.700;2023-07-09T02:58:39;98419.69;;;16.86;59.26
75425;BME280;64007;50.632;13.700;2023-07-09T03:01:05;98422.00;;;16.81;59.46
75425;BME280;64007;50.632;13.700;2023-07-09T03:03:30;98417.22;;;16.75;61.05
75425;BME280;64007;50.632;13.700;2023-07-09T03:05:56;98419.22;;;16.73;60.11
75425;BME280;64007;50.632;13.700;2023-07-09T03:08:22;98424.88;;;16.70;61.57
75425;BME280;64007;50.632;13.700;2023-07-09T03:10:48;98431.56;;;16.66;62.79
75425;BME280;64007;50.632;13.700;2023-07-09T03:13:14;98429.84;;;16.65;62.79
75425;BME280;64007;50.632;13.700;2023-07-09T03:15:39;98428.88;;;16.66;61.52
75425;BME280;64007;50.632;13.700;2023-07-09T03:18:05;98436.22;;;16.64;60.52
75425;BME280;64007;50.632;13.700;2023-07-09T03:20:31;98436.50;;;16.61;62.03
75425;BME280;64007;50.632;13.700;2023-07-09T03:22:57;98435.66;;;16.60;62.22
75425;BME280;64007;50.632;13.700;2023-07-09T03:25:23;98439.84;;;16.73;62.26
75425;BME280;64007;50.632;13.700;2023-07-09T03:27:48;98443.25;;;16.65;61.75
75425;BME280;64007;50.632;13.700;2023-07-09T03:30:14;98438.63;;;16.67;62.46
75425;BME280;64007;50.632;13.700;2023-07-09T03:32:40;98446.66;;;16.67;63.67
75425;BME280;64007;50.632;13.700;2023-07-09T03:35:06;98452.03;;;16.67;63.08
75425;BME280;64007;50.632;13.700;2023-07-09T03:37:32;98457.69;;;16.64;63.97
75425;BME280;64007;50.632;13.700;2023-07-09T03:39:58;98461.22;;;16.65;63.87
75425;BME280;64007;50.632;13.700;2023-07-09T03:42:24;98459.94;;;16.69;64.19
75425;BME280;64007;50.632;13.700;2023-07-09T03:44:49;98459.78;;;16.70;63.67
75425;BME280;64007;50.632;13.700;2023-07-09T03:47:15;98450.59;;;16.73;63.98
75425;BME280;64007;50.632;13.700;2023-07-09T03:49:41;98454.81;;;16.75;63.78
75425;BME280;64007;50.632;13.700;2023-07-09T03:52:07;98447.75;;;16.74;63.30
75425;BME280;64007;50.632;13.700;2023-07-09T03:54:33;98455.91;;;16.82;62.93
75425;BME280;64007;50.632;13.700;2023-07-09T03:56:59;98452.63;;;16.88;62.04
75425;BME280;64007;50.632;13.700;2023-07-09T03:59:24;98451.31;;;16.92;63.09
75425;BME280;64007;50.632;13.700;2023-07-09T04:01:50;98451.00;;;16.96;63.03
75425;BME280;64007;50.632;13.700;2023-07-09T04:04:16;98452.59;;;17.06;63.37
75425;BME280;64007;50.632;13.700;2023-07-09T04:06:46;98454.28;;;17.07;64.09
75425;BME280;64007;50.632;13.700;2023-07-09T04:09:12;98449.75;;;17.08;64.47
75425;BME280;64007;50.632;13.700;2023-07-09T04:11:37;98458.19;;;17.13;66.08
75425;BME280;64007;50.632;13.700;2023-07-09T04:14:03;98454.50;;;17.14;65.13
75425;BME280;64007;50.632;13.700;2023-07-09T04:16:29;98453.34;;;17.16;66.14
75425;BME280;64007;50.632;13.700;2023-07-09T04:18:55;98450.19;;;17.21;67.08
75425;BME280;64007;50.632;13.700;2023-07-09T04:21:20;98449.91;;;17.24;67.61
75425;BME280;64007;50.632;13.700;2023-07-09T04:23:46;98445.91;;;17.28;67.77
75425;BME280;64007;50.632;13.700;2023-07-09T04:26:15;98444.44;;;17.34;66.71
75425;BME280;64007;50.632;13.700;2023-07-09T04:28:41;98453.72;;;17.39;66.14
75425;BME280;64007;50.632;13.700;2023-07-09T04:31:07;98457.78;;;17.43;67.82
75425;BME280;64007;50.632;13.700;2023-07-09T04:33:33;98454.16;;;17.52;66.40
75425;BME280;64007;50.632;13.700;2023-07-09T04:36:01;98451.50;;;17.61;66.28
75425;BME280;64007;50.632;13.700;2023-07-09T04:38:27;98461.69;;;17.67;66.65
75425;BME280;64007;50.632;13.700;2023-07-09T04:40:53;98457.38;;;17.74;67.31
75425;BME280;64007;50.632;13.700;2023-07-09T04:43:19;98458.41;;;17.81;68.66
75425;BME280;64007;50.632;13.700;2023-07-09T04:45:45;98462.47;;;17.85;69.48
75425;BME280;64007;50.632;13.700;2023-07-09T04:48:11;98462.50;;;17.93;69.31
75425;BME280;64007;50.632;13.700;2023-07-09T04:50:36;98458.19;;;18.00;69.69
75425;BME280;64007;50.632;13.700;2023-07-09T04:53:02;98462.09;;;18.06;72.97
75425;BME280;64007;50.632;13.700;2023-07-09T04:55:29;98462.31;;;18.12;70.34
75425;BME280;64007;50.632;13.700;2023-07-09T04:57:54;98467.56;;;18.22;69.52
75425;BME280;64007;50.632;13.700;2023-07-09T05:00:20;98460.03;;;18.34;70.13
75425;BME280;64007;50.632;13.700;2023-07-09T05:02:46;98465.47;;;18.42;70.53
75425;BME280;64007;50.632;13.700;2023-07-09T05:05:11;98470.03;;;18.50;73.31
75425;BME280;64007;50.632;13.700;2023-07-09T05:07:38;98473.59;;;18.58;74.42
75425;BME280;64007;50.632;13.700;2023-07-09T05:10:05;98475.50;;;18.66;74.52
75425;BME280;64007;50.632;13.700;2023-07-09T05:12:31;98476.53;;;18.73;75.80
75425;BME280;64007;50.632;13.700;2023-07-09T05:14:57;98467.94;;;18.77;74.07
75425;BME280;64007;50.632;13.700;2023-07-09T05:17:23;98466.31;;;18.85;74.16
75425;BME280;64007;50.632;13.700;2023-07-09T05:19:50;98466.47;;;18.91;75.24
75425;BME280;64007;50.632;13.700;2023-07-09T05:22:16;98471.03;;;18.99;74.25
75425;BME280;64007;50.632;13.700;2023-07-09T05:24:41;98478.47;;;19.13;77.08
75425;BME280;64007;50.632;13.700;2023-07-09T05:27:08;98478.16;;;19.24;74.59
75425;BME280;64007;50.632;13.700;2023-07-09T05:29:34;98484.03;;;19.52;71.64
75425;BME280;64007;50.632;13.700;2023-07-09T05:32:00;98483.53;;;19.49;71.30
75425;BME280;64007;50.632;13.700;2023-07-09T05:34:25;98487.28;;;19.56;70.55
75425;BME280;64007;50.632;13.700;2023-07-09T05:36:51;98486.63;;;19.62;68.10
75425;BME280;64007;50.632;13.700;2023-07-09T05:39:17;98494.03;;;19.76;66.33
75425;BME280;64007;50.632;13.700;2023-07-09T05:41:43;98487.78;;;19.76;66.02
75425;BME280;64007;50.632;13.700;2023-07-09T05:44:09;98482.22;;;19.77;66.25
75425;BME280;64007;50.632;13.700;2023-07-09T05:46:35;98483.56;;;19.81;67.36
75425;BME280;64007;50.632;13.700;2023-07-09T05:49:05;98481.47;;;19.99;66.55
75425;BME280;64007;50.632;13.700;2023-07-09T05:51:32;98483.53;;;20.06;65.97
75425;BME280;64007;50.632;13.700;2023-07-09T05:53:57;98483.50;;;20.14;65.53
75425;BME280;64007;50.632;13.700;2023-07-09T05:56:23;98484.47;;;20.21;65.06
75425;BME280;64007;50.632;13.700;2023-07-09T05:58:49;98491.56;;;20.22;64.51
75425;BME280;64007;50.632;13.700;2023-07-09T06:01:15;98493.25;;;20.23;63.05
75425;BME280;64007;50.632;13.700;2023-07-09T06:03:40;98493.91;;;20.25;61.85
75425;BME280;64007;50.632;13.700;2023-07-09T06:06:06;98496.06;;;20.38;61.41
75425;BME280;64007;50.632;13.700;2023-07-09T06:08:32;98499.63;;;20.46;62.23
75425;BME280;64007;50.632;13.700;2023-07-09T06:11:00;98502.28;;;20.54;62.17
75425;BME280;64007;50.632;13.700;2023-07-09T06:13:28;98500.75;;;20.60;60.51
75425;BME280;64007;50.632;13.700;2023-07-09T06:15:57;98496.78;;;20.71;60.57
75425;BME280;64007;50.632;13.700;2023-07-09T06:18:24;98497.41;;;20.81;59.61
75425;BME280;64007;50.632;13.700;2023-07-09T06:20:52;98497.41;;;20.89;58.59
75425;BME280;64007;50.632;13.700;2023-07-09T06:23:18;98492.97;;;20.96;57.64
75425;BME280;64007;50.632;13.700;2023-07-09T06:25:45;98503.00;;;21.10;57.46
75425;BME280;64007;50.632;13.700;2023-07-09T06:28:20;98500.72;;;21.30;55.82
75425;BME280;64007;50.632;13.700;2023-07-09T06:30:47;98503.16;;;21.40;56.31
75425;BME280;64007;50.632;13.700;2023-07-09T06:33:14;98511.22;;;21.48;56.32
75425;BME280;64007;50.632;13.700;2023-07-09T06:35:52;98515.53;;;21.57;57.04
75425;BME280;64007;50.632;13.700;2023-07-09T06:38:19;98511.28;;;21.63;55.89
75425;BME280;64007;50.632;13.700;2023-07-09T06:40:45;98516.16;;;21.67;54.84
75425;BME280;64007;50.632;13.700;2023-07-09T06:43:11;98516.38;;;21.80;55.68
75425;BME280;64007;50.632;13.700;2023-07-09T06:45:37;98520.91;;;22.03;54.17
75425;BME280;64007;50.632;13.700;2023-07-09T06:48:03;98522.63;;;22.04;51.43
75425;BME280;64007;50.632;13.700;2023-07-09T06:50:29;98524.22;;;22.13;51.22
75425;BME280;64007;50.632;13.700;2023-07-09T06:52:58;98515.34;;;22.19;50.90
75425;BME280;64007;50.632;13.700;2023-07-09T06:55:23;98510.13;;;22.32;49.84
75425;BME280;64007;50.632;13.700;2023-07-09T06:57:49;98511.34;;;22.44;50.32
75425;BME280;64007;50.632;13.700;2023-07-09T07:00:15;98520.78;;;22.48;49.91
75425;BME280;64007;50.632;13.700;2023-07-09T07:02:41;98514.31;;;22.64;48.86
75425;BME280;64007;50.632;13.700;2023-07-09T07:05:06;98516.19;;;22.93;48.16
75425;BME280;64007;50.632;13.700;2023-07-09T07:07:32;98522.66;;;23.13;47.25
75425;BME280;64007;50.632;13.700;2023-07-09T07:09:58;98514.44;;;23.43;46.52
75425;BME280;64007;50.632;13.700;2023-07-09T07:12:28;98510.81;;;23.79;44.76
75425;BME280;64007;50.632;13.700;2023-07-09T07:14:55;98511.72;;;23.86;43.08
75425;BME280;64007;50.632;13.700;2023-07-09T07:17:21;98514.47;;;23.92;44.66
75425;BME280;64007;50.632;13.700;2023-07-09T07:19:49;98516.69;;;24.03;44.77
75425;BME280;64007;50.632;13.700;2023-07-09T07:22:14;98519.34;;;24.25;42.95
75425;BME280;64007;50.632;13.700;2023-07-09T07:24:40;98510.34;;;24.24;42.55
75425;BME280;64007;50.632;13.700;2023-07-09T07:27:07;98504.34;;;24.29;42.90
75425;BME280;64007;50.632;13.700;2023-07-09T07:29:33;98511.09;;;24.40;42.58
75425;BME280;64007;50.632;13.700;2023-07-09T07:31:59;98507.72;;;24.37;41.65
75425;BME280;64007;50.632;13.700;2023-07-09T07:34:26;98516.78;;;24.45;42.81
75425;BME280;64007;50.632;13.700;2023-07-09T07:36:51;98507.00;;;24.57;40.90
75425;BME280;64007;50.632;13.700;2023-07-09T07:39:17;98511.28;;;24.79;39.58
75425;BME280;64007;50.632;13.700;2023-07-09T07:41:43;98515.53;;;24.88;38.90
75425;BME280;64007;50.632;13.700;2023-07-09T07:44:09;98511.78;;;24.89;36.56
75425;BME280;64007;50.632;13.700;2023-07-09T07:46:34;98507.81;;;24.92;38.58
75425;BME280;64007;50.632;13.700;2023-07-09T07:49:00;98503.50;;;25.11;37.59
75425;BME280;64007;50.632;13.700;2023-07-09T07:51:26;98511.25;;;25.20;36.85
75425;BME280;64007;50.632;13.700;2023-07-09T07:53:52;98514.06;;;25.53;35.76
75425;BME280;64007;50.632;13.700;2023-07-09T07:56:18;98509.47;;;25.60;35.77
75425;BME280;64007;50.632;13.700;2023-07-09T07:58:44;98514.97;;;25.87;35.93
75425;BME280;64007;50.632;13.700;2023-07-09T08:01:10;98514.56;;;26.03;34.42
75425;BME280;64007;50.632;13.700;2023-07-09T08:03:36;98518.09;;;25.97;32.64
75425;BME280;64007;50.632;13.700;2023-07-09T08:06:01;98511.59;;;25.91;32.41
75425;BME280;64007;50.632;13.700;2023-07-09T08:08:27;98512.03;;;25.82;32.59
75425;BME280;64007;50.632;13.700;2023-07-09T08:11:00;98508.03;;;25.91;33.93
75425;BME280;64007;50.632;13.700;2023-07-09T08:13:27;98506.19;;;26.05;35.47
75425;BME280;64007;50.632;13.700;2023-07-09T08:15:52;98507.81;;;26.26;34.83
75425;BME280;64007;50.632;13.700;2023-07-09T08:18:18;98506.53;;;26.28;35.10
75425;BME280;64007;50.632;13.700;2023-07-09T08:20:44;98500.25;;;26.47;35.00
75425;BME280;64007;50.632;13.700;2023-07-09T08:23:10;98497.28;;;26.62;34.64
75425;BME280;64007;50.632;13.700;2023-07-09T08:25:36;98492.63;;;26.69;33.70
75425;BME280;64007;50.632;13.700;2023-07-09T08:28:02;98498.25;;;26.81;32.33
75425;BME280;64007;50.632;13.700;2023-07-09T08:30:27;98501.78;;;26.95;32.90
75425;BME280;64007;50.632;13.700;2023-07-09T08:32:53;98492.13;;;26.92;33.56
75425;BME280;64007;50.632;13.700;2023-07-09T08:35:20;98499.47;;;26.92;34.38
75425;BME280;64007;50.632;13.700;2023-07-09T08:37:46;98497.94;;;27.09;35.32
75425;BME280;64007;50.632;13.700;2023-07-09T08:40:13;98496.56;;;27.31;34.36
75425;BME280;64007;50.632;13.700;2023-07-09T08:42:45;98497.88;;;27.54;33.62
75425;BME280;64007;50.632;13.700;2023-07-09T08:48:10;98490.31;;;27.87;33.32
75425;BME280;64007;50.632;13.700;2023-07-09T08:50:48;98485.72;;;27.81;32.54
75425;BME280;64007;50.632;13.700;2023-07-09T08:53:20;98490.13;;;27.82;32.37
75425;BME280;64007;50.632;13.700;2023-07-09T08:55:48;98485.91;;;27.86;32.35
75425;BME280;64007;50.632;13.700;2023-07-09T08:58:27;98492.72;;;28.02;33.56
75425;BME280;64007;50.632;13.700;2023-07-09T09:00:55;98498.41;;;28.25;32.48
75425;BME280;64007;50.632;13.700;2023-07-09T09:03:40;98492.66;;;28.08;31.11
75425;BME280;64007;50.632;13.700;2023-07-09T09:06:14;98493.31;;;28.29;32.05
75425;BME280;64007;50.632;13.700;2023-07-09T09:08:47;98495.06;;;28.42;32.15
75425;BME280;64007;50.632;13.700;2023-07-09T09:12:04;98486.81;;;28.48;31.38
75425;BME280;64007;50.632;13.700;2023-07-09T09:14:31;98490.34;;;28.30;31.43
75425;BME280;64007;50.632;13.700;2023-07-09T09:16:58;98479.63;;;28.29;33.10
75425;BME280;64007;50.632;13.700;2023-07-09T09:21:58;98484.75;;;28.44;30.31
75425;BME280;64007;50.632;13.700;2023-07-09T09:24:40;98481.66;;;28.58;31.96
75425;BME280;64007;50.632;13.700;2023-07-09T09:27:08;98487.25;;;29.00;31.93
75425;BME280;64007;50.632;13.700;2023-07-09T09:29:35;98490.38;;;29.33;28.89
75425;BME280;64007;50.632;13.700;2023-07-09T09:32:17;98493.00;;;29.28;29.43
75425;BME280;64007;50.632;13.700;2023-07-09T09:34:44;98483.25;;;29.32;28.76
75425;BME280;64007;50.632;13.700;2023-07-09T09:37:11;98476.47;;;29.35;29.04
75425;BME280;64007;50.632;13.700;2023-07-09T09:39:39;98485.47;;;29.54;30.31
75425;BME280;64007;50.632;13.700;2023-07-09T09:42:11;98481.72;;;29.67;30.55
75425;BME280;64007;50.632;13.700;2023-07-09T09:44:43;98474.22;;;29.97;28.28
75425;BME280;64007;50.632;13.700;2023-07-09T09:47:11;98482.50;;;30.09;29.38
75425;BME280;64007;50.632;13.700;2023-07-09T09:49:41;98483.34;;;30.09;26.71
75425;BME280;64007;50.632;13.700;2023-07-09T09:52:14;98479.69;;;29.97;28.21
75425;BME280;64007;50.632;13.700;2023-07-09T09:54:51;98477.50;;;30.06;29.54
75425;BME280;64007;50.632;13.700;2023-07-09T09:57:20;98479.38;;;30.40;28.24
75425;BME280;64007;50.632;13.700;2023-07-09T09:59:46;98477.22;;;30.66;28.84
75425;BME280;64007;50.632;13.700;2023-07-09T10:02:20;98474.34;;;30.84;27.02
75425;BME280;64007;50.632;13.700;2023-07-09T10:04:47;98479.44;;;30.80;28.13
75425;BME280;64007;50.632;13.700;2023-07-09T10:07:27;98471.69;;;30.89;28.87
75425;BME280;64007;50.632;13.700;2023-07-09T10:09:56;98470.81;;;31.00;27.58
75425;BME280;64007;50.632;13.700;2023-07-09T10:15:01;98467.63;;;31.20;26.18
75425;BME280;64007;50.632;13.700;2023-07-09T10:17:53;98464.66;;;31.22;27.39
75425;BME280;64007;50.632;13.700;2023-07-09T10:20:24;98471.38;;;31.42;28.40
75425;BME280;64007;50.632;13.700;2023-07-09T10:23:15;98468.75;;;31.64;28.77
75425;BME280;64007;50.632;13.700;2023-07-09T10:26:03;98470.19;;;31.84;28.16
75425;BME280;64007;50.632;13.700;2023-07-09T10:39:57;98449.91;;;32.62;23.88
75425;BME280;64007;50.632;13.700;2023-07-09T10:42:40;98451.19;;;32.76;27.32
75425;BME280;64007;50.632;13.700;2023-07-09T10:45:12;98446.78;;;32.75;25.78
75425;BME280;64007;50.632;13.700;2023-07-09T10:47:41;98442.81;;;32.66;26.05
75425;BME280;64007;50.632;13.700;2023-07-09T10:50:30;98437.81;;;32.63;25.98
75425;BME280;64007;50.632;13.700;2023-07-09T10:53:02;98438.97;;;32.67;27.83
75425;BME280;64007;50.632;13.700;2023-07-09T10:55:43;98434.59;;;32.71;26.83
75425;BME280;64007;50.632;13.700;2023-07-09T11:00:42;98439.84;;;32.89;27.27
75425;BME280;64007;50.632;13.700;2023-07-09T11:03:42;98442.09;;;32.76;24.43
75425;BME280;64007;50.632;13.700;2023-07-09T11:06:21;98431.81;;;32.88;25.44
75425;BME280;64007;50.632;13.700;2023-07-09T11:08:50;98429.69;;;33.22;25.23
75425;BME280;64007;50.632;13.700;2023-07-09T11:13:56;98430.13;;;33.62;22.02
75425;BME280;64007;50.632;13.700;2023-07-09T11:16:32;98434.25;;;33.92;22.82
75425;BME280;64007;50.632;13.700;2023-07-09T11:19:01;98432.22;;;34.14;26.49
75425;BME280;64007;50.632;13.700;2023-07-09T11:21:27;98430.41;;;34.35;22.06
75425;BME280;64007;50.632;13.700;2023-07-09T11:23:55;98431.19;;;34.31;21.31
75425;BME280;64007;50.632;13.700;2023-07-09T11:26:23;98421.19;;;34.19;21.60
75425;BME280;64007;50.632;13.700;2023-07-09T11:29:15;98416.47;;;34.15;22.81
75425;BME280;64007;50.632;13.700;2023-07-09T11:31:41;98415.91;;;34.55;22.83
75425;BME280;64007;50.632;13.700;2023-07-09T11:34:17;98409.78;;;34.48;20.64
75425;BME280;64007;50.632;13.700;2023-07-09T11:39:45;98419.09;;;34.84;19.69
75425;BME280;64007;50.632;13.700;2023-07-09T11:44:49;98410.97;;;35.70;21.69
75425;BME280;64007;50.632;13.700;2023-07-09T11:47:21;98405.00;;;36.58;27.41
75425;BME280;64007;50.632;13.700;2023-07-09T11:49:59;98400.06;;;37.54;26.25
75425;BME280;64007;50.632;13.700;2023-07-09T11:52:45;98396.00;;;38.33;20.59
75425;BME280;64007;50.632;13.700;2023-07-09T11:55:27;98403.63;;;38.94;22.52
75425;BME280;64007;50.632;13.700;2023-07-09T11:58:00;98392.03;;;39.62;23.93
75425;BME280;64007;50.632;13.700;2023-07-09T12:00:28;98394.75;;;40.00;22.10
75425;BME280;64007;50.632;13.700;2023-07-09T12:02:55;98390.53;;;40.49;19.58
75425;BME280;64007;50.632;13.700;2023-07-09T12:05:29;98392.31;;;40.12;18.40
75425;BME280;64007;50.632;13.700;2023-07-09T12:07:56;98385.34;;;40.56;18.71
75425;BME280;64007;50.632;13.700;2023-07-09T12:10:31;98380.09;;;39.43;18.13
75425;BME280;64007;50.632;13.700;2023-07-09T12:12:59;98377.00;;;38.45;19.07
75425;BME280;64007;50.632;13.700;2023-07-09T12:15:28;98370.78;;;38.01;19.02
75425;BME280;64007;50.632;13.700;2023-07-09T12:17:57;98375.19;;;38.07;19.93
75425;BME280;64007;50.632;13.700;2023-07-09T12:20:25;98375.19;;;38.31;21.16
75425;BME280;64007;50.632;13.700;2023-07-09T12:22:51;98377.09;;;39.39;18.42
75425;BME280;64007;50.632;13.700;2023-07-09T12:25:24;98361.47;;;40.91;18.46
75425;BME280;64007;50.632;13.700;2023-07-09T12:27:51;98363.22;;;42.43;21.23
75425;BME280;64007;50.632;13.700;2023-07-09T12:30:17;98366.41;;;42.68;14.61
75425;BME280;64007;50.632;13.700;2023-07-09T12:32:47;98356.00;;;43.42;16.92
75425;BME280;64007;50.632;13.700;2023-07-09T12:35:16;98351.94;;;44.42;17.12
75425;BME280;64007;50.632;13.700;2023-07-09T12:37:43;98359.97;;;44.23;13.99
75425;BME280;64007;50.632;13.700;2023-07-09T12:40:19;98345.31;;;43.27;15.87
75425;BME280;64007;50.632;13.700;2023-07-09T12:42:46;98345.00;;;42.54;15.06
75425;BME280;64007;50.632;13.700;2023-07-09T12:45:18;98337.28;;;42.60;17.29
75425;BME280;64007;50.632;13.700;2023-07-09T12:47:45;98335.56;;;41.71;15.65
75425;BME280;64007;50.632;13.700;2023-07-09T12:50:32;98327.91;;;40.82;16.38
75425;BME280;64007;50.632;13.700;2023-07-09T12:53:08;98320.28;;;41.24;19.75
75425;BME280;64007;50.632;13.700;2023-07-09T12:55:42;98318.53;;;42.52;19.54
75425;BME280;64007;50.632;13.700;2023-07-09T12:58:19;98323.69;;;43.45;15.33
75425;BME280;64007;50.632;13.700;2023-07-09T13:00:51;98326.41;;;43.88;16.10
75425;BME280;64007;50.632;13.700;2023-07-09T13:03:25;98321.69;;;44.27;16.68
75425;BME280;64007;50.632;13.700;2023-07-09T13:06:03;98323.69;;;44.77;14.77
75425;BME280;64007;50.632;13.700;2023-07-09T13:08:40;98315.00;;;44.40;14.04
75425;BME280;64007;50.632;13.700;2023-07-09T13:11:16;98313.97;;;43.08;15.38
75425;BME280;64007;50.632;13.700;2023-07-09T13:13:54;98311.53;;;43.24;14.73
75425;BME280;64007;50.632;13.700;2023-07-09T13:16:19;98303.34;;;41.65;15.75
75425;BME280;64007;50.632;13.700;2023-07-09T13:18:45;98305.09;;;41.92;15.92
75425;BME280;64007;50.632;13.700;2023-07-09T13:21:17;98308.81;;;42.67;15.01
75425;BME280;64007;50.632;13.700;2023-07-09T13:23:44;98309.03;;;43.22;17.10
75425;BME280;64007;50.632;13.700;2023-07-09T13:26:09;98308.06;;;43.99;14.11
75425;BME280;64007;50.632;13.700;2023-07-09T13:28:35;98317.81;;;44.11;12.16
75425;BME280;64007;50.632;13.700;2023-07-09T13:31:10;98313.78;;;45.29;13.04
75425;BME280;64007;50.632;13.700;2023-07-09T13:33:37;98316.47;;;46.29;14.02
75425;BME280;64007;50.632;13.700;2023-07-09T13:36:03;98308.28;;;47.25;15.36